ITY107 LIPZ-LEPA
Flight info
| Callsign | ITY107 |
|---|---|
| Flight time | 1h 33m |
| Altitude | 39000 |
| Route | CHI6L/04R CHI DCT KALMO DCT IXITO DCT LUNIK |
| Aircraft | A339/H-SADE1E2E3GHIJ3J5M1P2RWXY/LB2D1 |
Departure
| Time | 2026-05-04 21:07 |
|---|---|
| Airport | Venice Marco Polo Airport (LIPZ) |
Arrival
| Time | 2026-05-04 22:40 |
|---|---|
| Airport | Palma de Mallorca Airport (LEPA) |
| Time | Latitude | Longitude | Altitude | Speed | Heading |
|---|---|---|---|---|---|
| 2026-05-04 20:28 | 45.50423 | 12.34202 | 27 ft | 0 kts | 266° |
| 2026-05-04 20:57 | 45.50423 | 12.34203 | 24 ft | 0 kts | 266° |
| 2026-05-04 20:59 | 45.50424 | 12.34210 | 24 ft | 1 kts | 266° |
| 2026-05-04 20:59 | 45.50424 | 12.34220 | 28 ft | 1 kts | 259° |
| 2026-05-04 20:59 | 45.50424 | 12.34228 | 28 ft | 1 kts | 253° |
| 2026-05-04 21:00 | 45.50426 | 12.34236 | 28 ft | 1 kts | 248° |
| 2026-05-04 21:00 | 45.50428 | 12.34245 | 27 ft | 1 kts | 242° |
| 2026-05-04 21:00 | 45.50435 | 12.34262 | 26 ft | 3 kts | 236° |
| 2026-05-04 21:00 | 45.50445 | 12.34284 | 24 ft | 3 kts | 231° |
| 2026-05-04 21:01 | 45.50459 | 12.34307 | 25 ft | 3 kts | 225° |
| 2026-05-04 21:01 | 45.50473 | 12.34327 | 27 ft | 3 kts | 218° |
| 2026-05-04 21:01 | 45.50488 | 12.34343 | 27 ft | 3 kts | 210° |
| 2026-05-04 21:01 | 45.50503 | 12.34355 | 27 ft | 2 kts | 202° |
| 2026-05-04 21:02 | 45.50515 | 12.34363 | 27 ft | 0 kts | 199° |
| 2026-05-04 21:03 | 45.50516 | 12.34363 | 27 ft | 0 kts | 199° |
| 2026-05-04 21:03 | 45.50497 | 12.34354 | 28 ft | 11 kts | 198° |
| 2026-05-04 21:03 | 45.50409 | 12.34348 | 28 ft | 13 kts | 176° |
| 2026-05-04 21:04 | 45.50312 | 12.34355 | 30 ft | 15 kts | 177° |
| 2026-05-04 21:04 | 45.50186 | 12.34360 | 21 ft | 21 kts | 183° |
| 2026-05-04 21:04 | 45.50063 | 12.34258 | 19 ft | 22 kts | 223° |
| 2026-05-04 21:04 | 45.49937 | 12.34097 | 16 ft | 26 kts | 221° |
| 2026-05-04 21:05 | 45.49801 | 12.33926 | 17 ft | 27 kts | 221° |
| 2026-05-04 21:05 | 45.49669 | 12.33758 | 22 ft | 26 kts | 222° |
| 2026-05-04 21:05 | 45.49535 | 12.33605 | 25 ft | 13 kts | 199° |
| 2026-05-04 21:05 | 45.49473 | 12.33648 | 21 ft | 11 kts | 137° |
| 2026-05-04 21:06 | 45.49433 | 12.33757 | 19 ft | 14 kts | 96° |
| 2026-05-04 21:06 | 45.49493 | 12.33879 | 18 ft | 17 kts | 43° |
| 2026-05-04 21:06 | 45.49626 | 12.34052 | 16 ft | 60 kts | 43° |
| 2026-05-04 21:06 | 45.50249 | 12.34853 | 25 ft | 171 kts | 43° |
| 2026-05-04 21:07 | 45.51247 | 12.36130 | 644 ft | 203 kts | 44° |
| 2026-05-04 21:07 | 45.52240 | 12.37513 | 1945 ft | 204 kts | 45° |
| 2026-05-04 21:07 | 45.53274 | 12.39076 | 2939 ft | 228 kts | 53° |
| 2026-05-04 21:07 | 45.53919 | 12.41261 | 3533 ft | 261 kts | 81° |
| 2026-05-04 21:08 | 45.53866 | 12.43958 | 4089 ft | 286 kts | 101° |
| 2026-05-04 21:08 | 45.53399 | 12.46842 | 4629 ft | 309 kts | 105° |
| 2026-05-04 21:08 | 45.52604 | 12.49607 | 5143 ft | 284 kts | 124° |
| 2026-05-04 21:08 | 45.51420 | 12.51503 | 5622 ft | 231 kts | 142° |
| 2026-05-04 21:09 | 45.50122 | 12.52653 | 6125 ft | 219 kts | 156° |
| 2026-05-04 21:09 | 45.48685 | 12.53278 | 6646 ft | 215 kts | 172° |
| 2026-05-04 21:09 | 45.47184 | 12.53311 | 7157 ft | 214 kts | 188° |
| 2026-05-04 21:09 | 45.45700 | 12.52913 | 7698 ft | 228 kts | 191° |
| 2026-05-04 21:10 | 45.44062 | 12.52482 | 8223 ft | 250 kts | 191° |
| 2026-05-04 21:10 | 45.42276 | 12.52046 | 8766 ft | 269 kts | 190° |
| 2026-05-04 21:10 | 45.40443 | 12.51615 | 9712 ft | 271 kts | 190° |
| 2026-05-04 21:10 | 45.38570 | 12.51179 | 10505 ft | 280 kts | 190° |
| 2026-05-04 21:11 | 45.36568 | 12.50709 | 10828 ft | 303 kts | 190° |
| 2026-05-04 21:11 | 45.34428 | 12.50089 | 11194 ft | 322 kts | 196° |
| 2026-05-04 21:11 | 45.32306 | 12.48996 | 11954 ft | 327 kts | 204° |
| 2026-05-04 21:11 | 45.30298 | 12.47463 | 12756 ft | 330 kts | 210° |
| 2026-05-04 21:12 | 45.28311 | 12.45764 | 13509 ft | 336 kts | 210° |
| 2026-05-04 21:12 | 45.26278 | 12.44045 | 14145 ft | 343 kts | 210° |
| 2026-05-04 21:12 | 45.24212 | 12.42317 | 14830 ft | 347 kts | 210° |
| 2026-05-04 21:12 | 45.22113 | 12.40570 | 15482 ft | 352 kts | 210° |
| 2026-05-04 21:13 | 45.19989 | 12.38806 | 16153 ft | 356 kts | 210° |
| 2026-05-04 21:13 | 45.17836 | 12.37019 | 16826 ft | 360 kts | 211° |
| 2026-05-04 21:13 | 45.15659 | 12.35214 | 17486 ft | 365 kts | 211° |
| 2026-05-04 21:13 | 45.13456 | 12.33386 | 18148 ft | 369 kts | 211° |
| 2026-05-04 21:14 | 45.11227 | 12.31538 | 18760 ft | 373 kts | 211° |
| 2026-05-04 21:14 | 45.09034 | 12.29572 | 19351 ft | 375 kts | 219° |
| 2026-05-04 21:14 | 45.07206 | 12.26950 | 20001 ft | 376 kts | 233° |
| 2026-05-04 21:14 | 45.05912 | 12.23783 | 20627 ft | 378 kts | 247° |
| 2026-05-04 21:15 | 45.04999 | 12.20276 | 21239 ft | 382 kts | 250° |
| 2026-05-04 21:15 | 45.04089 | 12.16739 | 21873 ft | 385 kts | 250° |
| 2026-05-04 21:15 | 45.03158 | 12.13167 | 22510 ft | 388 kts | 249° |
| 2026-05-04 21:15 | 45.02211 | 12.09575 | 23140 ft | 392 kts | 249° |
| 2026-05-04 21:16 | 45.01251 | 12.05958 | 23752 ft | 395 kts | 249° |
| 2026-05-04 21:16 | 45.00280 | 12.02312 | 24327 ft | 396 kts | 249° |
| 2026-05-04 21:16 | 44.99304 | 11.98660 | 24944 ft | 398 kts | 249° |
| 2026-05-04 21:16 | 44.98322 | 11.94992 | 25523 ft | 400 kts | 249° |
| 2026-05-04 21:17 | 44.97335 | 11.91309 | 26093 ft | 402 kts | 249° |
| 2026-05-04 21:17 | 44.96344 | 11.87620 | 26768 ft | 401 kts | 249° |
| 2026-05-04 21:17 | 44.95352 | 11.83932 | 27348 ft | 402 kts | 250° |
| 2026-05-04 21:17 | 44.94355 | 11.80229 | 27909 ft | 404 kts | 250° |
| 2026-05-04 21:18 | 44.93353 | 11.76511 | 28419 ft | 407 kts | 250° |
| 2026-05-04 21:18 | 44.92344 | 11.72771 | 28944 ft | 409 kts | 250° |
| 2026-05-04 21:18 | 44.91330 | 11.69020 | 29456 ft | 411 kts | 250° |
| 2026-05-04 21:18 | 44.90308 | 11.65242 | 29960 ft | 413 kts | 250° |
| 2026-05-04 21:19 | 44.89280 | 11.61452 | 30413 ft | 415 kts | 250° |
| 2026-05-04 21:19 | 44.88243 | 11.57633 | 30826 ft | 418 kts | 250° |
| 2026-05-04 21:19 | 44.87199 | 11.53793 | 31265 ft | 421 kts | 250° |
| 2026-05-04 21:19 | 44.86160 | 11.49976 | 31669 ft | 423 kts | 250° |
| 2026-05-04 21:20 | 44.85102 | 11.46095 | 32082 ft | 426 kts | 250° |
| 2026-05-04 21:20 | 44.84033 | 11.42178 | 32488 ft | 428 kts | 250° |
| 2026-05-04 21:20 | 44.82960 | 11.38255 | 32836 ft | 430 kts | 250° |
| 2026-05-04 21:20 | 44.81879 | 11.34310 | 33137 ft | 432 kts | 250° |
| 2026-05-04 21:21 | 44.80798 | 11.30370 | 33551 ft | 430 kts | 250° |
| 2026-05-04 21:21 | 44.79720 | 11.26449 | 33830 ft | 430 kts | 250° |
| 2026-05-04 21:21 | 44.78639 | 11.22523 | 34130 ft | 429 kts | 250° |
| 2026-05-04 21:21 | 44.77559 | 11.18607 | 34378 ft | 429 kts | 250° |
| 2026-05-04 21:22 | 44.76478 | 11.14694 | 34617 ft | 429 kts | 250° |
| 2026-05-04 21:22 | 44.75396 | 11.10785 | 34856 ft | 429 kts | 250° |
| 2026-05-04 21:22 | 44.74312 | 11.06873 | 35089 ft | 429 kts | 249° |
| 2026-05-04 21:22 | 44.73227 | 11.02966 | 35326 ft | 428 kts | 249° |
| 2026-05-04 21:23 | 44.72157 | 10.99116 | 35567 ft | 428 kts | 249° |
| 2026-05-04 21:23 | 44.71070 | 10.95215 | 35784 ft | 428 kts | 249° |
| 2026-05-04 21:23 | 44.69983 | 10.91318 | 36040 ft | 428 kts | 249° |
| 2026-05-04 21:23 | 44.68896 | 10.87426 | 36271 ft | 428 kts | 249° |
| 2026-05-04 21:24 | 44.67806 | 10.83531 | 36499 ft | 428 kts | 249° |
| 2026-05-04 21:24 | 44.66717 | 10.79646 | 36811 ft | 425 kts | 249° |
| 2026-05-04 21:24 | 44.65633 | 10.75783 | 37047 ft | 425 kts | 249° |
| 2026-05-04 21:24 | 44.64547 | 10.71922 | 37268 ft | 425 kts | 249° |
| 2026-05-04 21:25 | 44.63460 | 10.68060 | 37514 ft | 425 kts | 249° |
| 2026-05-04 21:25 | 44.62372 | 10.64203 | 37737 ft | 425 kts | 249° |
| 2026-05-04 21:25 | 44.61283 | 10.60346 | 37972 ft | 425 kts | 249° |
| 2026-05-04 21:25 | 44.60191 | 10.56487 | 38196 ft | 425 kts | 249° |
| 2026-05-04 21:26 | 44.59099 | 10.52635 | 38407 ft | 425 kts | 249° |
| 2026-05-04 21:26 | 44.58005 | 10.48778 | 38640 ft | 426 kts | 249° |
| 2026-05-04 21:26 | 44.56909 | 10.44921 | 38860 ft | 425 kts | 249° |
| 2026-05-04 21:26 | 44.55811 | 10.41063 | 39020 ft | 425 kts | 249° |
| 2026-05-04 21:27 | 44.53612 | 10.33359 | 39135 ft | 425 kts | 249° |
| 2026-05-04 21:27 | 44.51417 | 10.25689 | 39109 ft | 422 kts | 249° |
| 2026-05-04 21:28 | 44.49239 | 10.18099 | 39114 ft | 422 kts | 249° |
| 2026-05-04 21:28 | 44.47041 | 10.10469 | 39101 ft | 422 kts | 248° |
| 2026-05-04 21:29 | 44.44836 | 10.02838 | 39101 ft | 423 kts | 248° |
| 2026-05-04 21:29 | 44.42625 | 9.95207 | 39100 ft | 423 kts | 248° |
| 2026-05-04 21:30 | 44.40411 | 9.87588 | 39098 ft | 422 kts | 248° |
| 2026-05-04 21:30 | 44.38195 | 9.79981 | 39093 ft | 422 kts | 248° |
| 2026-05-04 21:31 | 44.34860 | 9.68583 | 39093 ft | 423 kts | 248° |
| 2026-05-04 21:32 | 44.32628 | 9.60976 | 39088 ft | 423 kts | 248° |
| 2026-05-04 21:32 | 44.30594 | 9.53275 | 39088 ft | 423 kts | 252° |
| 2026-05-04 21:33 | 44.28858 | 9.45422 | 39103 ft | 424 kts | 252° |
| 2026-05-04 21:33 | 44.27063 | 9.37569 | 39076 ft | 425 kts | 252° |
| 2026-05-04 21:34 | 44.25224 | 9.29721 | 39079 ft | 426 kts | 251° |
| 2026-05-04 21:34 | 44.23385 | 9.21934 | 39075 ft | 425 kts | 251° |
| 2026-05-04 21:35 | 44.21534 | 9.14115 | 39075 ft | 424 kts | 251° |
| 2026-05-04 21:35 | 44.19676 | 9.06288 | 39061 ft | 425 kts | 251° |
| 2026-05-04 21:36 | 44.17806 | 8.98445 | 39060 ft | 426 kts | 251° |
| 2026-05-04 21:36 | 44.15934 | 8.90618 | 39061 ft | 426 kts | 251° |
| 2026-05-04 21:37 | 44.13710 | 8.82982 | 39060 ft | 426 kts | 243° |
| 2026-05-04 21:37 | 44.10628 | 8.75997 | 39055 ft | 427 kts | 234° |
| 2026-05-04 21:38 | 44.06805 | 8.69657 | 39057 ft | 428 kts | 230° |
| 2026-05-04 21:38 | 44.02897 | 8.63419 | 39055 ft | 428 kts | 230° |
| 2026-05-04 21:39 | 43.99002 | 8.57177 | 39054 ft | 428 kts | 230° |
| 2026-05-04 21:39 | 43.95101 | 8.50940 | 39048 ft | 428 kts | 230° |
| 2026-05-04 21:40 | 43.91194 | 8.44711 | 39035 ft | 428 kts | 230° |
| 2026-05-04 21:40 | 43.87291 | 8.38508 | 39049 ft | 426 kts | 230° |
| 2026-05-04 21:41 | 43.83415 | 8.32360 | 39043 ft | 427 kts | 230° |
| 2026-05-04 21:41 | 43.79501 | 8.26167 | 39042 ft | 427 kts | 230° |
| 2026-05-04 21:42 | 43.75585 | 8.19986 | 39036 ft | 427 kts | 230° |
| 2026-05-04 21:42 | 43.71674 | 8.13826 | 39048 ft | 425 kts | 230° |
| 2026-05-04 21:43 | 43.67764 | 8.07679 | 39044 ft | 425 kts | 230° |
| 2026-05-04 21:43 | 43.63863 | 8.01560 | 39040 ft | 424 kts | 230° |
| 2026-05-04 21:44 | 43.59987 | 7.95492 | 39047 ft | 424 kts | 230° |
| 2026-05-04 21:44 | 43.56085 | 7.89397 | 39034 ft | 423 kts | 230° |
| 2026-05-04 21:45 | 43.52188 | 7.83323 | 39035 ft | 422 kts | 230° |
| 2026-05-04 21:45 | 43.48297 | 7.77272 | 39029 ft | 421 kts | 230° |
| 2026-05-04 21:46 | 43.44409 | 7.71237 | 39025 ft | 421 kts | 230° |
| 2026-05-04 21:46 | 43.40540 | 7.65244 | 39025 ft | 421 kts | 230° |
| 2026-05-04 21:47 | 43.36647 | 7.59228 | 39029 ft | 421 kts | 230° |
| 2026-05-04 21:47 | 43.32759 | 7.53232 | 39028 ft | 419 kts | 230° |
| 2026-05-04 21:48 | 43.28881 | 7.47262 | 39024 ft | 419 kts | 230° |
| 2026-05-04 21:48 | 43.25001 | 7.41303 | 39018 ft | 418 kts | 230° |
| 2026-05-04 21:49 | 43.21120 | 7.35353 | 39017 ft | 418 kts | 230° |
| 2026-05-04 21:49 | 43.17241 | 7.29421 | 39017 ft | 418 kts | 230° |
| 2026-05-04 21:50 | 43.13359 | 7.23495 | 39016 ft | 418 kts | 230° |
| 2026-05-04 21:50 | 43.10130 | 7.18575 | 39013 ft | 418 kts | 230° |
| 2026-05-04 21:51 | 43.06245 | 7.12666 | 39011 ft | 418 kts | 230° |
| 2026-05-04 21:51 | 43.01724 | 7.05805 | 39006 ft | 418 kts | 229° |
| 2026-05-04 21:52 | 42.98468 | 7.00873 | 39011 ft | 417 kts | 229° |
| 2026-05-04 21:52 | 42.94600 | 6.95028 | 39000 ft | 417 kts | 229° |
| 2026-05-04 21:53 | 42.90712 | 6.89163 | 38998 ft | 417 kts | 229° |
| 2026-05-04 21:53 | 42.86820 | 6.83305 | 39016 ft | 416 kts | 229° |
| 2026-05-04 21:54 | 42.82927 | 6.77455 | 38999 ft | 416 kts | 229° |
| 2026-05-04 21:54 | 42.79059 | 6.71656 | 38996 ft | 415 kts | 229° |
| 2026-05-04 21:55 | 42.75176 | 6.65847 | 38993 ft | 415 kts | 229° |
| 2026-05-04 21:55 | 42.71292 | 6.60046 | 38993 ft | 415 kts | 229° |
| 2026-05-04 21:56 | 42.67403 | 6.54250 | 38986 ft | 415 kts | 229° |
| 2026-05-04 21:56 | 42.63512 | 6.48465 | 38987 ft | 414 kts | 229° |
| 2026-05-04 21:57 | 42.59619 | 6.42682 | 38980 ft | 415 kts | 229° |
| 2026-05-04 21:57 | 42.55713 | 6.36897 | 38980 ft | 415 kts | 229° |
| 2026-05-04 21:58 | 42.51804 | 6.31119 | 38975 ft | 416 kts | 229° |
| 2026-05-04 21:58 | 42.47890 | 6.25344 | 38976 ft | 416 kts | 229° |
| 2026-05-04 21:59 | 42.44000 | 6.19616 | 38957 ft | 416 kts | 229° |
| 2026-05-04 21:59 | 42.40077 | 6.13851 | 38968 ft | 416 kts | 228° |
| 2026-05-04 22:00 | 42.36151 | 6.08091 | 38975 ft | 417 kts | 228° |
| 2026-05-04 22:00 | 42.32215 | 6.02328 | 38962 ft | 417 kts | 228° |
| 2026-05-04 22:01 | 42.28269 | 5.96565 | 38961 ft | 418 kts | 228° |
| 2026-05-04 22:01 | 42.24310 | 5.90795 | 38948 ft | 418 kts | 228° |
| 2026-05-04 22:02 | 42.20351 | 5.85034 | 38948 ft | 419 kts | 228° |
| 2026-05-04 22:02 | 42.16384 | 5.79272 | 38950 ft | 419 kts | 228° |
| 2026-05-04 22:03 | 42.12439 | 5.73553 | 38949 ft | 419 kts | 228° |
| 2026-05-04 22:03 | 42.08459 | 5.67795 | 38949 ft | 420 kts | 228° |
| 2026-05-04 22:04 | 42.04472 | 5.62041 | 38944 ft | 420 kts | 228° |
| 2026-05-04 22:04 | 42.00484 | 5.56295 | 38948 ft | 420 kts | 228° |
| 2026-05-04 22:05 | 41.96490 | 5.50551 | 38951 ft | 420 kts | 228° |
| 2026-05-04 22:05 | 41.92497 | 5.44820 | 38947 ft | 420 kts | 228° |
| 2026-05-04 22:06 | 41.88525 | 5.39131 | 38950 ft | 420 kts | 228° |
| 2026-05-04 22:06 | 41.84525 | 5.33413 | 38952 ft | 419 kts | 228° |
| 2026-05-04 22:07 | 41.80515 | 5.27692 | 38946 ft | 421 kts | 228° |
| 2026-05-04 22:07 | 41.76497 | 5.21971 | 38946 ft | 421 kts | 228° |
| 2026-05-04 22:08 | 41.72480 | 5.16261 | 38947 ft | 421 kts | 228° |
| 2026-05-04 22:08 | 41.68460 | 5.10559 | 38946 ft | 421 kts | 228° |
| 2026-05-04 22:09 | 41.64436 | 5.04865 | 38944 ft | 420 kts | 228° |
| 2026-05-04 22:09 | 41.60420 | 4.99190 | 38947 ft | 420 kts | 228° |
| 2026-05-04 22:10 | 41.56396 | 4.93516 | 38963 ft | 423 kts | 228° |
| 2026-05-04 22:10 | 41.52335 | 4.87800 | 38949 ft | 424 kts | 227° |
| 2026-05-04 22:11 | 41.48299 | 4.82131 | 38947 ft | 424 kts | 227° |
| 2026-05-04 22:11 | 41.44240 | 4.76442 | 38940 ft | 422 kts | 228° |
| 2026-05-04 22:12 | 41.40180 | 4.70760 | 38956 ft | 423 kts | 227° |
| 2026-05-04 22:12 | 41.36118 | 4.65087 | 38952 ft | 423 kts | 227° |
| 2026-05-04 22:13 | 41.32054 | 4.59421 | 38950 ft | 423 kts | 228° |
| 2026-05-04 22:13 | 41.28013 | 4.53788 | 38950 ft | 423 kts | 228° |
| 2026-05-04 22:14 | 41.23945 | 4.48138 | 38953 ft | 422 kts | 228° |
| 2026-05-04 22:14 | 41.19886 | 4.42512 | 38952 ft | 421 kts | 228° |
| 2026-05-04 22:15 | 41.15825 | 4.36896 | 38956 ft | 421 kts | 228° |
| 2026-05-04 22:15 | 41.11767 | 4.31293 | 38954 ft | 421 kts | 228° |
| 2026-05-04 22:16 | 41.07704 | 4.25694 | 38949 ft | 421 kts | 228° |
| 2026-05-04 22:16 | 41.03642 | 4.20111 | 38953 ft | 419 kts | 228° |
| 2026-05-04 22:17 | 40.99585 | 4.14547 | 38957 ft | 420 kts | 228° |
| 2026-05-04 22:17 | 40.95525 | 4.08995 | 38954 ft | 420 kts | 228° |
| 2026-05-04 22:18 | 40.91488 | 4.03479 | 38955 ft | 420 kts | 227° |
| 2026-05-04 22:18 | 40.87419 | 3.97939 | 38956 ft | 419 kts | 228° |
| 2026-05-04 22:19 | 40.83357 | 3.92399 | 38947 ft | 419 kts | 227° |
| 2026-05-04 22:19 | 40.78950 | 3.87372 | 38958 ft | 423 kts | 214° |
| 2026-05-04 22:20 | 40.73747 | 3.83660 | 38954 ft | 425 kts | 211° |
| 2026-05-04 22:20 | 40.68542 | 3.79964 | 38932 ft | 424 kts | 212° |
| 2026-05-04 22:20 | 40.65961 | 3.78079 | 38460 ft | 424 kts | 213° |
| 2026-05-04 22:21 | 40.63412 | 3.76198 | 37486 ft | 426 kts | 213° |
| 2026-05-04 22:21 | 40.60823 | 3.74281 | 36199 ft | 429 kts | 213° |
| 2026-05-04 22:21 | 40.58217 | 3.72353 | 34877 ft | 428 kts | 212° |
| 2026-05-04 22:21 | 40.55622 | 3.70436 | 33465 ft | 426 kts | 212° |
| 2026-05-04 22:22 | 40.53034 | 3.68525 | 31769 ft | 427 kts | 212° |
| 2026-05-04 22:22 | 40.50442 | 3.66612 | 30338 ft | 426 kts | 212° |
| 2026-05-04 22:22 | 40.47870 | 3.64717 | 29085 ft | 421 kts | 212° |
| 2026-05-04 22:22 | 40.45330 | 3.62850 | 28130 ft | 414 kts | 212° |
| 2026-05-04 22:23 | 40.42853 | 3.61031 | 27512 ft | 401 kts | 212° |
| 2026-05-04 22:23 | 40.40455 | 3.59275 | 27032 ft | 389 kts | 212° |
| 2026-05-04 22:23 | 40.38058 | 3.57512 | 26599 ft | 398 kts | 212° |
| 2026-05-04 22:23 | 40.35669 | 3.55758 | 26181 ft | 389 kts | 213° |
| 2026-05-04 22:24 | 40.33323 | 3.54038 | 25772 ft | 385 kts | 212° |
| 2026-05-04 22:24 | 40.30985 | 3.52326 | 25352 ft | 385 kts | 212° |
| 2026-05-04 22:24 | 40.28681 | 3.50639 | 24940 ft | 383 kts | 212° |
| 2026-05-04 22:24 | 40.26357 | 3.48940 | 24543 ft | 381 kts | 213° |
| 2026-05-04 22:25 | 40.24045 | 3.47251 | 24147 ft | 379 kts | 213° |
| 2026-05-04 22:25 | 40.21744 | 3.45571 | 23772 ft | 377 kts | 213° |
| 2026-05-04 22:25 | 40.19454 | 3.43901 | 23283 ft | 375 kts | 213° |
| 2026-05-04 22:25 | 40.17191 | 3.42252 | 22845 ft | 368 kts | 213° |
| 2026-05-04 22:26 | 40.14993 | 3.40655 | 22332 ft | 355 kts | 213° |
| 2026-05-04 22:26 | 40.12875 | 3.39117 | 21765 ft | 342 kts | 213° |
| 2026-05-04 22:26 | 40.10827 | 3.37628 | 21141 ft | 332 kts | 213° |
| 2026-05-04 22:26 | 40.08835 | 3.36175 | 20509 ft | 324 kts | 213° |
| 2026-05-04 22:27 | 40.06880 | 3.34748 | 19828 ft | 319 kts | 213° |
| 2026-05-04 22:27 | 40.04954 | 3.33344 | 19120 ft | 315 kts | 213° |
| 2026-05-04 22:27 | 40.03041 | 3.31952 | 18375 ft | 314 kts | 213° |
| 2026-05-04 22:27 | 40.01137 | 3.30569 | 17538 ft | 312 kts | 213° |
| 2026-05-04 22:28 | 39.99241 | 3.29194 | 16710 ft | 311 kts | 212° |
| 2026-05-04 22:28 | 39.97357 | 3.27831 | 15894 ft | 309 kts | 212° |
| 2026-05-04 22:28 | 39.95485 | 3.26477 | 15104 ft | 307 kts | 212° |
| 2026-05-04 22:28 | 39.93621 | 3.25130 | 14287 ft | 306 kts | 212° |
| 2026-05-04 22:29 | 39.91763 | 3.23786 | 13418 ft | 305 kts | 212° |
| 2026-05-04 22:29 | 39.89908 | 3.22446 | 12514 ft | 304 kts | 212° |
| 2026-05-04 22:29 | 39.88062 | 3.21113 | 11630 ft | 302 kts | 212° |
| 2026-05-04 22:29 | 39.86251 | 3.19808 | 10786 ft | 301 kts | 212° |
| 2026-05-04 22:30 | 39.84427 | 3.18496 | 9952 ft | 298 kts | 211° |
| 2026-05-04 22:30 | 39.82617 | 3.17192 | 9044 ft | 295 kts | 211° |
| 2026-05-04 22:30 | 39.80828 | 3.15906 | 8150 ft | 292 kts | 211° |
| 2026-05-04 22:30 | 39.79055 | 3.14632 | 7294 ft | 289 kts | 211° |
| 2026-05-04 22:31 | 39.77304 | 3.13375 | 6445 ft | 286 kts | 212° |
| 2026-05-04 22:31 | 39.75575 | 3.12132 | 5613 ft | 281 kts | 211° |
| 2026-05-04 22:31 | 39.73912 | 3.10940 | 5201 ft | 262 kts | 211° |
| 2026-05-04 22:31 | 39.72384 | 3.09848 | 5021 ft | 239 kts | 212° |
| 2026-05-04 22:32 | 39.71099 | 3.08705 | 4980 ft | 210 kts | 223° |
| 2026-05-04 22:32 | 39.70453 | 3.07834 | 4979 ft | 195 kts | 232° |
| 2026-05-04 22:32 | 39.69528 | 3.05970 | 4983 ft | 174 kts | 241° |
| 2026-05-04 22:32 | 39.68944 | 3.04665 | 4984 ft | 160 kts | 240° |
| 2026-05-04 22:33 | 39.68374 | 3.03434 | 4907 ft | 159 kts | 239° |
| 2026-05-04 22:33 | 39.67797 | 3.02224 | 4698 ft | 157 kts | 239° |
| 2026-05-04 22:33 | 39.67233 | 3.01023 | 4464 ft | 154 kts | 239° |
| 2026-05-04 22:33 | 39.66684 | 2.99859 | 4244 ft | 152 kts | 240° |
| 2026-05-04 22:34 | 39.66141 | 2.98699 | 4025 ft | 149 kts | 239° |
| 2026-05-04 22:34 | 39.65608 | 2.97569 | 3824 ft | 145 kts | 240° |
| 2026-05-04 22:34 | 39.65093 | 2.96470 | 3620 ft | 140 kts | 240° |
| 2026-05-04 22:34 | 39.64602 | 2.95425 | 3457 ft | 132 kts | 240° |
| 2026-05-04 22:35 | 39.64127 | 2.94416 | 3279 ft | 130 kts | 240° |
| 2026-05-04 22:35 | 39.63659 | 2.93420 | 3109 ft | 128 kts | 240° |
| 2026-05-04 22:35 | 39.63201 | 2.92445 | 2930 ft | 125 kts | 240° |
| 2026-05-04 22:35 | 39.62737 | 2.91456 | 2767 ft | 129 kts | 239° |
| 2026-05-04 22:36 | 39.62271 | 2.90471 | 2589 ft | 128 kts | 240° |
| 2026-05-04 22:36 | 39.61808 | 2.89481 | 2431 ft | 126 kts | 239° |
| 2026-05-04 22:36 | 39.61361 | 2.88535 | 2265 ft | 125 kts | 238° |
| 2026-05-04 22:36 | 39.60910 | 2.87576 | 2097 ft | 121 kts | 239° |
| 2026-05-04 22:37 | 39.60464 | 2.86629 | 1933 ft | 122 kts | 238° |
| 2026-05-04 22:37 | 39.60015 | 2.85678 | 1781 ft | 131 kts | 238° |
| 2026-05-04 22:37 | 39.59556 | 2.84698 | 1602 ft | 127 kts | 238° |
| 2026-05-04 22:37 | 39.59094 | 2.83718 | 1424 ft | 123 kts | 238° |
| 2026-05-04 22:38 | 39.58632 | 2.82739 | 1261 ft | 127 kts | 237° |
| 2026-05-04 22:38 | 39.58177 | 2.81767 | 1081 ft | 126 kts | 238° |
| 2026-05-04 22:38 | 39.57865 | 2.81113 | 984 ft | 134 kts | 237° |
| 2026-05-04 22:38 | 39.57382 | 2.80084 | 797 ft | 132 kts | 238° |
| 2026-05-04 22:39 | 39.56913 | 2.79074 | 603 ft | 129 kts | 238° |
| 2026-05-04 22:39 | 39.56440 | 2.78065 | 466 ft | 126 kts | 238° |
| 2026-05-04 22:39 | 39.56004 | 2.77141 | 244 ft | 115 kts | 237° |
| 2026-05-04 22:39 | 39.55599 | 2.76293 | 61 ft | 104 kts | 237° |
| 2026-05-04 22:40 | 39.55255 | 2.75579 | 33 ft | 81 kts | 238° |
| 2026-05-04 22:40 | 39.55045 | 2.75125 | 34 ft | 43 kts | 239° |
| 2026-05-04 22:40 | 39.54898 | 2.74806 | 34 ft | 37 kts | 241° |
| 2026-05-04 22:40 | 39.54814 | 2.74508 | 37 ft | 35 kts | 257° |
| 2026-05-04 22:41 | 39.54801 | 2.74380 | 37 ft | 0 kts | 267° |
| 2026-05-04 22:44 | 39.54801 | 2.74376 | 37 ft | 2 kts | 267° |
| 2026-05-04 22:45 | 39.54800 | 2.74340 | 38 ft | 6 kts | 267° |
| 2026-05-04 22:45 | 39.54784 | 2.74126 | 39 ft | 16 kts | 251° |
| 2026-05-04 22:45 | 39.54718 | 2.73973 | 40 ft | 23 kts | 238° |
| 2026-05-04 22:46 | 39.54630 | 2.73789 | 41 ft | 24 kts | 238° |
| 2026-05-04 22:46 | 39.54591 | 2.73666 | 41 ft | 7 kts | 280° |
| 2026-05-04 22:46 | 39.54633 | 2.73619 | 41 ft | 11 kts | 330° |
| 2026-05-04 22:46 | 39.54683 | 2.73588 | 41 ft | 8 kts | 334° |
| 2026-05-04 22:47 | 39.54722 | 2.73562 | 41 ft | 4 kts | 333° |
| 2026-05-04 22:47 | 39.54731 | 2.73557 | 41 ft | 2 kts | 333° |
| 2026-05-04 22:47 | 39.54759 | 2.73536 | 41 ft | 7 kts | 326° |
| 2026-05-04 22:47 | 39.54777 | 2.73467 | 41 ft | 10 kts | 265° |
| 2026-05-04 22:48 | 39.54747 | 2.73387 | 41 ft | 6 kts | 234° |
| 2026-05-04 22:48 | 39.54747 | 2.73386 | 41 ft | 0 kts | 234° |